M I D A S
Marine Information and Data Acquisition System
Tripno 1046 of the Zeeleeuw from 2006-03-08 07:44:13 to 2006-03-08 13:42:24
Back to CruiseResearch ActivitiesStationsMapUnderway DataData graphs

EquipmentUnitsComment
TimeDGPSUTC
LatitudeDGPSDM.mWGS84
LongitudeDGPSDM.mWGS84
HeadingGyrodeg 
SOGDGPSknotsSpeed over ground
COGDGPSdegCourse over ground
DepthEcho soundermeters200 kHz
Missing or incorrect values are displayed as -999
Navigation data collected by the RV Zeeleeuw from 2006-03-08 07:41:22 to 2006-03-08 13:45:06
                                                                                    Next 1000 lines
Time Latitude Longitude Heading SOG COG Depth
2006-03-08 07:41:33 51°13.597 2°56.094 127.9 0.1 305 8.7
2006-03-08 07:41:38 51°13.597 2°56.094 128.2 0.1 225 8.8
2006-03-08 07:41:43 51°13.597 2°56.094 128.4 -999 232 8.8
2006-03-08 07:41:48 51°13.597 2°56.093 128.7 0.1 237 9.1
2006-03-08 07:41:53 51°13.597 2°56.093 128.9 0.1 237 9.1
2006-03-08 07:41:58 51°13.597 2°56.093 129.4 0.1 254 9.3
2006-03-08 07:42:03 51°13.597 2°56.093 129.9 0.1 239 9.5
2006-03-08 07:42:08 51°13.597 2°56.093 130.6 0.1 238 9.7
2006-03-08 07:42:13 51°13.597 2°56.093 131.3 0.1 238 9.8
2006-03-08 07:42:18 51°13.597 2°56.092 132.3 0.2 218 9.9
2006-03-08 07:42:23 51°13.597 2°56.092 133.3 0.1 234 10.2
2006-03-08 07:42:28 51°13.597 2°56.092 134.2 0.1 245 10.4
2006-03-08 07:42:33 51°13.597 2°56.091 135 0.1 245 10.4
2006-03-08 07:42:38 51°13.596 2°56.091 135.9 0.1 208 10.4
2006-03-08 07:42:43 51°13.596 2°56.092 136.6 0.2 153 10.4
2006-03-08 07:42:48 51°13.596 2°56.093 137.1 0.3 142 10.4
2006-03-08 07:42:53 51°13.595 2°56.094 137.2 0.3 142 10.4
2006-03-08 07:42:58 51°13.593 2°56.097 137.4 1.3 135 10.4
2006-03-08 07:43:03 51°13.591 2°56.1 137.6 1.9 134 10.2
2006-03-08 07:43:08 51°13.589 2°56.104 137.7 2.2 132 10.7
2006-03-08 07:43:13 51°13.587 2°56.108 137.5 2.2 132 10.6
2006-03-08 07:43:18 51°13.584 2°56.113 137.3 2.6 132 10.7
2006-03-08 07:43:23 51°13.581 2°56.118 137.3 2.8 133 10.8
2006-03-08 07:43:28 51°13.578 2°56.122 138 3 134 10.8
2006-03-08 07:43:33 51°13.575 2°56.127 138.8 3 134 11.2
2006-03-08 07:43:38 51°13.572 2°56.132 139.8 3.3 136 11.4
2006-03-08 07:43:42 51°13.569 2°56.137 140.3 3.4 136 11.4
2006-03-08 07:43:48 51°13.565 2°56.143 140.8 3.4 137 11.5
2006-03-08 07:43:53 51°13.561 2°56.148 141.5 3.4 137 11.5
2006-03-08 07:43:58 51°13.557 2°56.153 142.7 3.6 139 11.5
2006-03-08 07:44:03 51°13.553 2°56.159 144.1 3.7 140 11.5
2006-03-08 07:44:08 51°13.549 2°56.164 145.1 3.8 141 11.5
2006-03-08 07:44:13 51°13.545 2°56.169 145.4 3.8 141 11.5
2006-03-08 07:44:18 51°13.541 2°56.175 145.8 3.9 139 11.6
2006-03-08 07:44:23 51°13.536 2°56.183 145.5 4.5 137 11.6
2006-03-08 07:44:28 51°13.533 2°56.19 140.1 4.5 134 11.6
2006-03-08 07:44:33 51°13.53 2°56.198 133.2 4.5 134 11.5
2006-03-08 07:44:38 51°13.528 2°56.206 124.7 4 120 11.6
2006-03-08 07:44:43 51°13.526 2°56.214 119.2 3.8 111 11.6
2006-03-08 07:44:48 51°13.525 2°56.222 113.9 3.7 107 11.6
2006-03-08 07:44:53 51°13.524 2°56.229 108.5 3.7 107 11.6
2006-03-08 07:44:58 51°13.524 2°56.237 103 3.5 95 11.6
2006-03-08 07:45:03 51°13.524 2°56.244 98.6 3.2 89 11.6
2006-03-08 07:45:08 51°13.525 2°56.25 92.5 3.1 87 11.7
2006-03-08 07:45:13 51°13.525 2°56.255 89.8 3.1 87 11.7
2006-03-08 07:45:18 51°13.526 2°56.257 85.6 1.7 83 11.7
2006-03-08 07:45:22 51°13.526 2°56.259 82 0.8 83 11.6
2006-03-08 07:45:28 51°13.526 2°56.259 77.3 0.5 91 11.7
2006-03-08 07:45:33 51°13.525 2°56.258 75.4 0.5 91 11.7
2006-03-08 07:45:38 51°13.524 2°56.256 74 0.7 237 11.6
2006-03-08 07:45:42 51°13.524 2°56.253 73.2 1.3 247 11.6
2006-03-08 07:45:48 51°13.523 2°56.25 72.1 1.3 247 -999
2006-03-08 07:45:53 51°13.522 2°56.248 71.5 1.2 247 -999
2006-03-08 07:45:58 51°13.522 2°56.246 71.5 1 250 -999
2006-03-08 07:46:03 51°13.521 2°56.244 71.2 0.9 251 -999
2006-03-08 07:46:08 51°13.521 2°56.243 70.6 0.8 252 -999
2006-03-08 07:46:13 51°13.521 2°56.243 69.4 0.2 249 -999
2006-03-08 07:46:18 51°13.522 2°56.244 66.8 0.4 49 -999
2006-03-08 07:46:23 51°13.522 2°56.245 63.9 0.5 52 4.7
2006-03-08 07:46:28 51°13.523 2°56.247 59.9 1.1 50 5.6
2006-03-08 07:46:32 51°13.524 2°56.249 55 1.4 48 -999
2006-03-08 07:46:39 51°13.527 2°56.252 49.3 1.6 44 -999
2006-03-08 07:46:43 51°13.529 2°56.254 43.1 1.7 37 -999
2006-03-08 07:46:48 51°13.531 2°56.256 37 1.6 34 -999
2006-03-08 07:46:52 51°13.532 2°56.257 34.3 1.4 34 4.9
2006-03-08 07:46:58 51°13.533 2°56.258 31.9 0.9 41 -999
2006-03-08 07:47:03 51°13.533 2°56.259 28.2 0.4 36 -999
2006-03-08 07:47:08 51°13.533 2°56.259 25.4 0.2 139 -999
2006-03-08 07:47:12 51°13.532 2°56.259 23.3 0.5 183 -999
2006-03-08 07:47:18 51°13.531 2°56.258 22 1.1 189 -999
2006-03-08 07:47:23 51°13.529 2°56.257 20.9 1.6 193 -999
2006-03-08 07:47:28 51°13.527 2°56.256 20.3 1.5 192 -999
2006-03-08 07:47:33 51°13.525 2°56.256 19.6 1.5 188 -999
2006-03-08 07:47:38 51°13.523 2°56.255 19.5 1.4 191 -999
2006-03-08 07:47:43 51°13.522 2°56.255 19.5 1.1 189 -999
2006-03-08 07:47:48 51°13.521 2°56.255 18.7 0.5 187 -999
2006-03-08 07:47:53 51°13.521 2°56.255 16.8 0.3 176 -999
2006-03-08 07:47:58 51°13.521 2°56.255 14.5 0.1 37 -999
2006-03-08 07:48:03 51°13.521 2°56.255 11.7 0.4 24 -999
2006-03-08 07:48:08 51°13.522 2°56.255 8.6 0.5 18 -999
2006-03-08 07:48:13 51°13.523 2°56.254 4.9 0.9 7 -999
2006-03-08 07:48:18 51°13.525 2°56.254 0.7 1.2 1 -999
2006-03-08 07:48:23 51°13.527 2°56.254 356.4 1.2 359 4.8
2006-03-08 07:48:28 51°13.528 2°56.254 353.4 1.2 359 -999
2006-03-08 07:48:33 51°13.53 2°56.254 350.5 0.9 359 -999
2006-03-08 07:48:38 51°13.531 2°56.254 348.2 0.6 359 -999
2006-03-08 07:48:43 51°13.531 2°56.255 346.2 0.3 18 -999
2006-03-08 07:48:48 51°13.531 2°56.256 343.5 0.2 115 -999
2006-03-08 07:48:53 51°13.53 2°56.256 341.8 0.4 127 -999
2006-03-08 07:48:58 51°13.529 2°56.258 340.7 0.8 144 11.5
2006-03-08 07:49:03 51°13.528 2°56.259 339.6 1 143 4.8
2006-03-08 07:49:08 51°13.527 2°56.26 339 0.9 144 11.4
2006-03-08 07:49:13 51°13.527 2°56.261 338.8 0.8 140 -999
2006-03-08 07:49:18 51°13.526 2°56.262 338.7 0.4 120 -999
2006-03-08 07:49:23 51°13.526 2°56.262 338 0.2 63 -999
2006-03-08 07:49:28 51°13.527 2°56.262 335.8 0.4 356 -999
2006-03-08 07:49:33 51°13.528 2°56.262 333.1 0.6 344 -999
2006-03-08 07:49:38 51°13.529 2°56.26 330.2 1 330 -999
2006-03-08 07:49:43 51°13.53 2°56.258 324.8 1.4 324 -999
2006-03-08 07:49:48 51°13.532 2°56.255 319.3 1.7 317 -999
2006-03-08 07:49:53 51°13.534 2°56.251 314.5 1.8 313 4.8
2006-03-08 07:49:58 51°13.536 2°56.246 308.3 2.1 308 -999
2006-03-08 07:50:03 51°13.537 2°56.24 303.2 2.9 295 11.6
2006-03-08 07:50:08 51°13.539 2°56.233 298.5 3.5 293 11.6
2006-03-08 07:50:13 51°13.541 2°56.224 295.8 4.1 288 11.5
2006-03-08 07:50:18 51°13.543 2°56.214 293.1 4.7 288 11.6
2006-03-08 07:50:23 51°13.545 2°56.203 291.5 5 286 11.5
2006-03-08 07:50:28 51°13.548 2°56.191 290.9 5.4 286 11.5
2006-03-08 07:50:33 51°13.551 2°56.179 291.6 5.4 286 11.5
2006-03-08 07:50:38 51°13.554 2°56.166 293.1 6.1 289 11.5
2006-03-08 07:50:43 51°13.557 2°56.153 295.2 6.4 292 11.5
2006-03-08 07:50:48 51°13.561 2°56.14 297.5 6.4 293 11.4
2006-03-08 07:50:53 51°13.565 2°56.127 299.7 6.4 293 11.4
2006-03-08 07:50:58 51°13.569 2°56.114 301.2 6.5 296 11.4
2006-03-08 07:51:03 51°13.573 2°56.101 302 6.4 297 11.4
2006-03-08 07:51:08 51°13.577 2°56.088 303.3 6.5 299 11.4
2006-03-08 07:51:13 51°13.582 2°56.076 304.1 6.5 299 11.4
2006-03-08 07:51:18 51°13.587 2°56.064 305.2 6.5 301 11.3
2006-03-08 07:51:23 51°13.592 2°56.052 306.4 6.5 302 11.3
2006-03-08 07:51:28 51°13.597 2°56.039 307.1 6.5 302 11.3
2006-03-08 07:51:33 51°13.602 2°56.027 307.7 6.5 302 11.3
2006-03-08 07:51:38 51°13.607 2°56.016 308.1 6.6 303 11.3
2006-03-08 07:51:43 51°13.613 2°56.005 308.5 6.6 304 11.3
2006-03-08 07:51:48 51°13.618 2°55.993 309 6.6 304 11.2
2006-03-08 07:51:53 51°13.623 2°55.981 309.1 6.6 304 11.3
2006-03-08 07:51:58 51°13.629 2°55.969 309 6.5 303 11.3
2006-03-08 07:52:03 51°13.634 2°55.957 309 6.6 304 11.2
2006-03-08 07:52:08 51°13.639 2°55.945 309 6.7 303 11.3
2006-03-08 07:52:13 51°13.644 2°55.932 308.9 6.7 303 11.3
2006-03-08 07:52:18 51°13.649 2°55.92 309.1 6.7 304 11.3
2006-03-08 07:52:23 51°13.654 2°55.908 309.6 6.7 305 11.4
2006-03-08 07:52:28 51°13.66 2°55.896 309.9 6.7 305 11.4
2006-03-08 07:52:33 51°13.665 2°55.884 310 6.7 305 11.5
2006-03-08 07:52:38 51°13.671 2°55.872 310.3 6.7 305 11.5
2006-03-08 07:52:43 51°13.676 2°55.86 310.3 6.7 305 11.5
2006-03-08 07:52:48 51°13.681 2°55.848 310.7 6.6 306 11.6
2006-03-08 07:52:53 51°13.687 2°55.836 311.4 6.6 306 11.6
2006-03-08 07:52:58 51°13.693 2°55.825 312.1 6.6 308 11.7
2006-03-08 07:53:03 51°13.698 2°55.813 312.6 6.6 308 11.8
2006-03-08 07:53:08 51°13.704 2°55.802 312.9 6.6 309 11.8
2006-03-08 07:53:13 51°13.71 2°55.791 313.7 6.6 309 11.9
2006-03-08 07:53:18 51°13.716 2°55.78 315 6.5 311 11.9
2006-03-08 07:53:23 51°13.722 2°55.769 315.7 6.6 310 11.9
2006-03-08 07:53:28 51°13.728 2°55.758 315.7 6.5 311 11.9
2006-03-08 07:53:33 51°13.734 2°55.747 316 6.5 311 11.9
2006-03-08 07:53:38 51°13.74 2°55.736 317.1 6.5 313 11.9
2006-03-08 07:53:43 51°13.746 2°55.726 319.2 6.5 315 -999
2006-03-08 07:53:48 51°13.753 2°55.716 321.4 6.5 317 11.9
2006-03-08 07:53:53 51°13.76 2°55.707 323.1 6.5 319 11.8
2006-03-08 07:53:58 51°13.767 2°55.698 325 6.4 321 11.9
2006-03-08 07:54:03 51°13.774 2°55.689 326.3 6.5 322 11.9
2006-03-08 07:54:08 51°13.781 2°55.681 327.8 6.4 324 11.9
2006-03-08 07:54:12 51°13.787 2°55.674 329.5 6.4 326 11.9
2006-03-08 07:54:18 51°13.796 2°55.665 331.3 6.4 327 11.9
2006-03-08 07:54:23 51°13.804 2°55.658 333 6.4 329 11.8
2006-03-08 07:54:28 51°13.812 2°55.651 335.1 6.5 330 11.8
2006-03-08 07:54:33 51°13.82 2°55.645 336.6 6.5 333 11.8
2006-03-08 07:54:38 51°13.828 2°55.639 338.5 6.4 334 11.8
2006-03-08 07:54:43 51°13.836 2°55.632 339.6 6.5 334 11.8
2006-03-08 07:54:48 51°13.844 2°55.626 340.5 6.5 336 11.8
2006-03-08 07:54:53 51°13.852 2°55.62 341.4 6.5 336 11.8
2006-03-08 07:54:58 51°13.86 2°55.613 341.8 6.5 336 11.8
2006-03-08 07:55:03 51°13.868 2°55.605 341.5 6.5 335 11.8
2006-03-08 07:55:08 51°13.876 2°55.601 340.8 6.7 334 11.8
2006-03-08 07:55:13 51°13.885 2°55.595 340.6 6.7 334 11.8
2006-03-08 07:55:18 51°13.893 2°55.59 340.9 6.5 335 11.8
2006-03-08 07:55:23 51°13.902 2°55.584 341.4 6.6 336 11.8
2006-03-08 07:55:28 51°13.91 2°55.578 341.6 6.6 336 11.8
2006-03-08 07:55:33 51°13.918 2°55.573 341.6 6.6 336 11.8
2006-03-08 07:55:38 51°13.927 2°55.567 341.7 6.7 335 11.8
2006-03-08 07:55:43 51°13.936 2°55.56 341.7 6.8 336 11.8
2006-03-08 07:55:48 51°13.944 2°55.554 341.3 6.9 335 11.8
2006-03-08 07:55:53 51°13.953 2°55.547 341.1 6.9 336 12.5
2006-03-08 07:55:58 51°13.962 2°55.541 341.4 7 336 11.8
2006-03-08 07:56:03 51°13.971 2°55.534 341.9 7 336 11.8
2006-03-08 07:56:08 51°13.98 2°55.528 342.3 7.1 336 11.8
2006-03-08 07:56:13 51°13.989 2°55.521 342.3 7.2 336 11.8
2006-03-08 07:56:18 51°13.999 2°55.515 342.4 7.5 337 11.8
2006-03-08 07:56:23 51°14.009 2°55.508 342.5 7.6 337 11.8
2006-03-08 07:56:28 51°14.019 2°55.501 342.5 7.7 336 11.8
2006-03-08 07:56:33 51°14.029 2°55.494 342.4 7.7 336 11.8
2006-03-08 07:56:38 51°14.039 2°55.487 342.5 8 335 11.8
2006-03-08 07:56:43 51°14.049 2°55.479 342.4 8.1 336 11.8
2006-03-08 07:56:48 51°14.059 2°55.472 342 8.1 335 11.8
2006-03-08 07:56:52 51°14.068 2°55.466 341.4 8.2 335 11.8
2006-03-08 07:56:58 51°14.08 2°55.456 341.2 8.3 335 11.8
2006-03-08 07:57:03 51°14.091 2°55.448 341.1 8.4 334 11.8
2006-03-08 07:57:08 51°14.101 2°55.44 340.8 8.4 334 11.8
2006-03-08 07:57:12 51°14.11 2°55.433 340 8.5 333 11.8
2006-03-08 07:57:18 51°14.123 2°55.423 339.8 8.7 333 11.8
2006-03-08 07:57:22 51°14.132 2°55.416 340 8.8 333 11.8
2006-03-08 07:57:28 51°14.145 2°55.404 339.8 8.9 333 11.8
2006-03-08 07:57:32 51°14.154 2°55.397 338.8 9 332 11.8
2006-03-08 07:57:38 51°14.167 2°55.385 337.7 9 331 11.8
2006-03-08 07:57:42 51°14.175 2°55.377 337.1 9.1 329 11.8
2006-03-08 07:57:48 51°14.188 2°55.363 335.5 9.2 329 11.8
2006-03-08 07:57:52 51°14.197 2°55.354 333.7 9.2 326 11.7
2006-03-08 07:57:58 51°14.209 2°55.339 331.8 9.2 325 11.7
2006-03-08 07:58:02 51°14.217 2°55.329 329.6 9.3 321 11.7
2006-03-08 07:58:08 51°14.229 2°55.313 328 9.3 321 11.7
2006-03-08 07:58:12 51°14.237 2°55.302 326.5 9.3 319 11.8
2006-03-08 07:58:18 51°14.248 2°55.284 324.5 9.5 318 11.7
2006-03-08 07:58:23 51°14.258 2°55.269 322.4 9.8 315 11.7
2006-03-08 07:58:28 51°14.268 2°55.252 321 10.3 313 11.7
2006-03-08 07:58:33 51°14.277 2°55.234 319.7 10.6 312 11.7
2006-03-08 07:58:38 51°14.287 2°55.216 318.3 10.8 311 11.7
2006-03-08 07:58:43 51°14.297 2°55.197 317.1 11 310 11.7
2006-03-08 07:58:48 51°14.307 2°55.178 316.7 11.3 311 11.7
2006-03-08 07:58:53 51°14.318 2°55.159 317.1 11.3 311 12.3
2006-03-08 07:58:58 51°14.328 2°55.139 317.2 11.7 309 -999
2006-03-08 07:59:03 51°14.339 2°55.118 316.2 11.9 309 11.7
2006-03-08 07:59:08 51°14.348 2°55.096 314.2 12.1 306 11.7
2006-03-08 07:59:12 51°14.356 2°55.079 312.7 12.1 306 11.7
2006-03-08 07:59:18 51°14.369 2°55.053 312.4 12.2 307 11.8
2006-03-08 07:59:22 51°14.377 2°55.036 313.4 12.4 308 11.9
2006-03-08 07:59:28 51°14.39 2°55.01 314 12.4 308 11.8
2006-03-08 07:59:33 51°14.4 2°54.988 313.8 12.4 308 11.8
2006-03-08 07:59:38 51°14.411 2°54.966 312.6 12.4 306 12
2006-03-08 07:59:43 51°14.421 2°54.944 312.1 12.5 307 12
2006-03-08 07:59:48 51°14.431 2°54.922 312 12.5 307 12.1
2006-03-08 07:59:52 51°14.439 2°54.904 310.8 12.5 305 11.9
2006-03-08 07:59:58 51°14.451 2°54.877 309.9 12.5 306 11.9
2006-03-08 08:00:02 51°14.46 2°54.859 309.8 12.5 307 12
2006-03-08 08:00:08 51°14.473 2°54.834 310.3 12.4 309 11.9
2006-03-08 08:00:12 51°14.482 2°54.817 311.7 12.4 310 11.7
2006-03-08 08:00:18 51°14.495 2°54.792 312.1 12.3 310 11.7
2006-03-08 08:00:23 51°14.506 2°54.771 312 12.3 310 11.7
2006-03-08 08:00:28 51°14.516 2°54.75 310.9 12.2 308 11.7
2006-03-08 08:00:32 51°14.524 2°54.733 309.9 12.1 307 11.7
2006-03-08 08:00:38 51°14.536 2°54.707 309 12.1 307 11.6
2006-03-08 08:00:43 51°14.546 2°54.685 308.5 12.2 307 11.7
2006-03-08 08:00:48 51°14.557 2°54.663 309 12.3 307 11.6
2006-03-08 08:00:53 51°14.568 2°54.642 309.8 12.3 307 11.5
2006-03-08 08:00:58 51°14.579 2°54.621 311.2 12.6 311 11.5
2006-03-08 08:01:02 51°14.589 2°54.604 313.1 12.6 312 11.5
2006-03-08 08:01:08 51°14.603 2°54.58 315 12.7 313 11.4
2006-03-08 08:01:12 51°14.613 2°54.563 315.2 12.7 313 11.5
2006-03-08 08:01:18 51°14.628 2°54.539 315.7 12.8 314 11.5
2006-03-08 08:01:23 51°14.641 2°54.519 316.5 12.8 315 11.4
2006-03-08 08:01:28 51°14.654 2°54.5 317.5 12.8 316 11.4
2006-03-08 08:01:33 51°14.666 2°54.479 317.8 12.8 315 11.4
2006-03-08 08:01:38 51°14.678 2°54.458 316.5 12.8 312 11.4
2006-03-08 08:01:42 51°14.687 2°54.441 313.8 12.7 309 11.4
2006-03-08 08:01:48 51°14.699 2°54.414 310.9 12.6 308 11.3
2006-03-08 08:01:52 51°14.707 2°54.396 308.6 12.6 306 11.4
2006-03-08 08:01:58 51°14.72 2°54.369 307.6 12.6 305 11.4
2006-03-08 08:02:02 51°14.728 2°54.35 307.1 12.6 305 11.4
2006-03-08 08:02:08 51°14.739 2°54.323 306.9 12.7 305 11.4
2006-03-08 08:02:13 51°14.749 2°54.299 306.2 12.7 305 11.4
2006-03-08 08:02:18 51°14.758 2°54.275 304.9 12.6 302 11.3
2006-03-08 08:02:22 51°14.765 2°54.256 303.8 12.6 301 11.4
2006-03-08 08:02:28 51°14.776 2°54.228 303.2 12.7 301 11.4
2006-03-08 08:02:32 51°14.783 2°54.208 302.8 12.7 301 11.3
2006-03-08 08:02:38 51°14.794 2°54.18 303 12.7 301 11.3
2006-03-08 08:02:43 51°14.804 2°54.156 303.4 12.7 303 11.2
2006-03-08 08:02:48 51°14.813 2°54.132 304.1 12.7 303 11.1
2006-03-08 08:02:53 51°14.823 2°54.109 304.7 12.7 303 11.2
2006-03-08 08:02:58 51°14.832 2°54.085 305.1 12.7 303 11.2
2006-03-08 08:03:03 51°14.842 2°54.062 305.1 12.7 303 11.1
2006-03-08 08:03:08 51°14.851 2°54.038 305 12.7 302 11
2006-03-08 08:03:12 51°14.858 2°54.018 303.9 12.7 301 11.1
2006-03-08 08:03:18 51°14.869 2°53.989 303.2 12.7 300 11.1
2006-03-08 08:03:23 51°14.877 2°53.964 302.5 12.7 299 10.9
2006-03-08 08:03:28 51°14.886 2°53.94 301.6 12.6 298 10.9
2006-03-08 08:03:33 51°14.894 2°53.915 301.3 12.7 298 10.9
2006-03-08 08:03:38 51°14.902 2°53.89 301.1 12.7 298 10.9
2006-03-08 08:03:42 51°14.908 2°53.87 301 12.7 298 10.9
2006-03-08 08:03:48 51°14.918 2°53.84 301 12.7 298 11.1
2006-03-08 08:03:52 51°14.925 2°53.82 301.1 12.8 298 11
2006-03-08 08:03:58 51°14.935 2°53.79 301.5 12.8 298 10.9
2006-03-08 08:04:03 51°14.944 2°53.765 302 12.8 299 11
2006-03-08 08:04:08 51°14.952 2°53.741 302.8 12.8 299 11
2006-03-08 08:04:12 51°14.96 2°53.721 303.3 12.9 300 11
2006-03-08 08:04:18 51°14.971 2°53.692 304.2 12.9 300 11
2006-03-08 08:04:22 51°14.978 2°53.672 304.5 12.9 300 11.1
2006-03-08 08:04:28 51°14.989 2°53.643 304.7 12.9 301 11.1
2006-03-08 08:04:33 51°14.998 2°53.618 304.9 12.9 301 11.1
2006-03-08 08:04:38 51°15.007 2°53.594 304.9 12.9 301 11.2
2006-03-08 08:04:43 51°15.016 2°53.569 304.8 12.9 300 11.2
2006-03-08 08:04:48 51°15.025 2°53.544 304.7 12.9 300 11.4
2006-03-08 08:04:52 51°15.032 2°53.524 304.3 13 300 11.4
2006-03-08 08:04:58 51°15.043 2°53.495 304.3 12.9 300 11.4
2006-03-08 08:05:03 51°15.052 2°53.47 304.1 13 300 11.4
2006-03-08 08:05:08 51°15.061 2°53.445 304.2 13 300 11.4
2006-03-08 08:05:13 51°15.071 2°53.42 304.3 13 300 11.5
2006-03-08 08:05:18 51°15.08 2°53.396 304.4 13 301 11.5
2006-03-08 08:05:23 51°15.089 2°53.371 304.7 13 301 11.6
2006-03-08 08:05:28 51°15.098 2°53.347 304.8 13 301 11.6
2006-03-08 08:05:32 51°15.106 2°53.328 305.2 13 302 11.5
2006-03-08 08:05:38 51°15.117 2°53.298 305.5 12.9 302 11.7
2006-03-08 08:05:43 51°15.127 2°53.274 305.5 13 302 11.7
2006-03-08 08:05:48 51°15.136 2°53.249 305.2 12.9 301 11.7
2006-03-08 08:05:53 51°15.145 2°53.225 304.9 12.9 301 11.8
2006-03-08 08:05:58 51°15.154 2°53.201 304.6 12.9 301 11.7
2006-03-08 08:06:03 51°15.163 2°53.176 304.2 12.9 301 11.8
2006-03-08 08:06:08 51°15.173 2°53.151 304.1 12.9 301 11.8
2006-03-08 08:06:12 51°15.18 2°53.132 304.1 12.9 301 11.9
2006-03-08 08:06:18 51°15.192 2°53.102 304.1 12.9 301 11.8
2006-03-08 08:06:22 51°15.199 2°53.083 304.2 12.9 302 11.9
2006-03-08 08:06:28 51°15.21 2°53.054 304.4 12.9 302 11.9
2006-03-08 08:06:33 51°15.219 2°53.03 304.7 12.9 302 12
2006-03-08 08:06:38 51°15.229 2°53.006 304.9 12.9 302 12
2006-03-08 08:06:43 51°15.238 2°52.982 305.3 12.9 303 12
2006-03-08 08:06:48 51°15.248 2°52.958 305.6 12.9 303 12.2
2006-03-08 08:06:52 51°15.256 2°52.939 305.8 12.8 303 12.1
2006-03-08 08:06:58 51°15.267 2°52.91 305.9 12.8 303 12.1
2006-03-08 08:07:02 51°15.275 2°52.891 305.8 12.8 303 12.1
2006-03-08 08:07:08 51°15.286 2°52.862 305.5 12.8 301 12.1
2006-03-08 08:07:12 51°15.293 2°52.843 304.5 12.7 301 12.3
2006-03-08 08:07:18 51°15.304 2°52.813 303.5 12.7 300 12.2
2006-03-08 08:07:23 51°15.312 2°52.789 302.6 12.7 299 12.4
2006-03-08 08:07:28 51°15.321 2°52.764 301.9 12.7 298 12.4
2006-03-08 08:07:32 51°15.327 2°52.744 301.3 12.7 298 12.4
2006-03-08 08:07:38 51°15.337 2°52.714 300.9 12.7 297 12.5
2006-03-08 08:07:43 51°15.345 2°52.688 300.6 12.7 297 12.5
2006-03-08 08:07:48 51°15.353 2°52.664 300.4 12.7 297 12.6
2006-03-08 08:07:52 51°15.359 2°52.643 299.9 12.7 296 12.6
2006-03-08 08:07:58 51°15.368 2°52.612 298.5 12.7 294 12.6
2006-03-08 08:08:02 51°15.373 2°52.591 297 12.7 292 12.7
2006-03-08 08:08:08 51°15.381 2°52.56 295.7 12.7 292 12.8
2006-03-08 08:08:12 51°15.386 2°52.539 294.9 12.6 291 12.9
2006-03-08 08:08:18 51°15.393 2°52.508 294.6 12.7 291 12.9
2006-03-08 08:08:22 51°15.398 2°52.487 294.5 12.7 290 12.9
2006-03-08 08:08:28 51°15.405 2°52.455 294 12.6 290 13
2006-03-08 08:08:32 51°15.41 2°52.434 292.7 12.6 289 13
2006-03-08 08:08:38 51°15.416 2°52.402 291.5 12.6 288 13
2006-03-08 08:08:42 51°15.419 2°52.381 290.2 12.5 285 13.2
2006-03-08 08:08:48 51°15.425 2°52.349 288.9 12.5 285 13.1
2006-03-08 08:08:52 51°15.427 2°52.327 287.2 12.5 284 13.1
2006-03-08 08:08:58 51°15.431 2°52.295 285.2 12.4 281 13.2
2006-03-08 08:09:02 51°15.433 2°52.273 283.5 12.4 279 13.3
2006-03-08 08:09:08 51°15.435 2°52.24 281.6 12.4 278 13.3
2006-03-08 08:09:12 51°15.436 2°52.219 279.8 12.3 276 13.4
2006-03-08 08:09:18 51°15.438 2°52.186 278.2 12.3 274 13.4
2006-03-08 08:09:23 51°15.438 2°52.159 277.5 12.3 274 13.5
2006-03-08 08:09:28 51°15.439 2°52.131 276.8 12.3 273 13.5
2006-03-08 08:09:33 51°15.44 2°52.104 276.2 12.3 273 13.5
2006-03-08 08:09:38 51°15.441 2°52.077 275.8 12.3 272 13.6
2006-03-08 08:09:43 51°15.441 2°52.05 275.6 12.3 272 13.6
2006-03-08 08:09:48 51°15.441 2°52.023 275 12.3 271 13.6
2006-03-08 08:09:52 51°15.441 2°52.001 274.3 12.3 271 13.7
2006-03-08 08:09:58 51°15.441 2°51.968 273.7 12.3 269 13.7
2006-03-08 08:10:03 51°15.441 2°51.941 273.5 12.3 269 13.8
2006-03-08 08:10:08 51°15.44 2°51.914 272.7 12.3 268 13.7
2006-03-08 08:10:13 51°15.438 2°51.887 271.4 12.3 268 13.8
2006-03-08 08:10:18 51°15.437 2°51.86 270.1 12.3 266 13.8
2006-03-08 08:10:22 51°15.436 2°51.839 269.2 12.3 264 13.9
2006-03-08 08:10:28 51°15.433 2°51.806 268.1 12.3 264 13.9
2006-03-08 08:10:33 51°15.431 2°51.779 267.8 12.3 263 13.9
2006-03-08 08:10:38 51°15.429 2°51.752 267.4 12.3 263 14
2006-03-08 08:10:43 51°15.428 2°51.725 267.1 12.3 263 14
2006-03-08 08:10:48 51°15.425 2°51.698 266.9 12.3 263 14
2006-03-08 08:10:52 51°15.424 2°51.676 266.8 12.3 263 13.9
2006-03-08 08:10:58 51°15.422 2°51.643 266.8 12.3 263 14
2006-03-08 08:11:02 51°15.421 2°51.622 267 12.3 264 14
2006-03-08 08:11:08 51°15.419 2°51.589 268.1 12.4 266 14.1
2006-03-08 08:11:12 51°15.418 2°51.567 269 12.4 266 14.1
2006-03-08 08:11:18 51°15.417 2°51.534 270 12.4 267 14.1
2006-03-08 08:11:23 51°15.417 2°51.507 270.2 12.4 268 14.2
2006-03-08 08:11:28 51°15.416 2°51.48 270.8 12.4 268 14
2006-03-08 08:11:33 51°15.415 2°51.452 271.1 12.4 268 14.2
2006-03-08 08:11:38 51°15.415 2°51.425 271.7 12.4 268 14.2
2006-03-08 08:11:43 51°15.414 2°51.398 271.7 12.4 267 14.2
2006-03-08 08:11:48 51°15.413 2°51.37 271.4 12.4 268 14.2
2006-03-08 08:11:52 51°15.412 2°51.348 271.1 12.4 267 14.2
2006-03-08 08:11:58 51°15.411 2°51.315 270.7 12.3 267 14.2
2006-03-08 08:12:03 51°15.41 2°51.288 270.4 12.4 266 14.2
2006-03-08 08:12:08 51°15.409 2°51.261 270 12.4 267 14.3
2006-03-08 08:12:13 51°15.408 2°51.234 269.9 12.4 267 14.3
2006-03-08 08:12:18 51°15.407 2°51.207 270 12.4 267 14.4
2006-03-08 08:12:23 51°15.407 2°51.179 270.3 12.4 267 14.3
2006-03-08 08:12:28 51°15.406 2°51.152 271 12.4 268 14.3
2006-03-08 08:12:33 51°15.406 2°51.124 271.4 12.4 268 14.2
2006-03-08 08:12:38 51°15.405 2°51.097 271.5 12.4 268 14.3
2006-03-08 08:12:43 51°15.404 2°51.069 271.4 12.4 268 14.3
2006-03-08 08:12:48 51°15.404 2°51.042 271.2 12.4 268 14.3
2006-03-08 08:12:53 51°15.403 2°51.014 271 12.4 267 14.3
2006-03-08 08:12:58 51°15.402 2°50.987 271 12.4 267 14.3
2006-03-08 08:13:02 51°15.402 2°50.965 271 12.4 268 14.3
2006-03-08 08:13:08 51°15.401 2°50.932 270.8 12.4 267 14.3
2006-03-08 08:13:13 51°15.399 2°50.905 270.4 12.4 267 14.3
2006-03-08 08:13:18 51°15.398 2°50.878 270 12.4 266 14.3
2006-03-08 08:13:23 51°15.397 2°50.85 269.7 12.4 266 14.3
2006-03-08 08:13:28 51°15.396 2°50.823 269.6 12.4 266 14.3
2006-03-08 08:13:32 51°15.395 2°50.801 269.5 12.4 266 14.3
2006-03-08 08:13:38 51°15.393 2°50.768 269.4 12.4 267 14.3
2006-03-08 08:13:43 51°15.392 2°50.741 269.8 12.5 267 14.3
2006-03-08 08:13:48 51°15.392 2°50.713 270.3 12.5 267 14.4
2006-03-08 08:13:52 51°15.391 2°50.691 270.9 12.5 267 14.5
2006-03-08 08:13:58 51°15.39 2°50.658 271.3 12.4 268 14.4
2006-03-08 08:14:03 51°15.39 2°50.631 271.3 12.5 268 14.4
2006-03-08 08:14:08 51°15.389 2°50.604 271.4 12.4 267 14.4
2006-03-08 08:14:13 51°15.388 2°50.576 271 12.4 267 14.3
2006-03-08 08:14:18 51°15.387 2°50.549 270.9 12.4 267 14.4
2006-03-08 08:14:23 51°15.386 2°50.522 270.9 12.4 267 14.4
2006-03-08 08:14:28 51°15.386 2°50.494 270.7 12.4 267 14.4
2006-03-08 08:14:32 51°15.385 2°50.472 270.7 12.4 267 14.4
2006-03-08 08:14:38 51°15.384 2°50.439 270.7 12.5 267 14.4
2006-03-08 08:14:43 51°15.383 2°50.412 270.7 12.4 267 14.4
2006-03-08 08:14:48 51°15.382 2°50.385 270.7 12.4 267 14.4
2006-03-08 08:14:53 51°15.381 2°50.357 270.4 12.4 267 14.4
2006-03-08 08:14:58 51°15.38 2°50.329 270.1 12.5 266 14.4
2006-03-08 08:15:02 51°15.378 2°50.307 270 12.5 266 14.6
2006-03-08 08:15:08 51°15.377 2°50.274 269.9 12.5 266 14.4
2006-03-08 08:15:12 51°15.376 2°50.252 269.9 12.5 267 14.4
2006-03-08 08:15:18 51°15.375 2°50.219 270.2 12.5 267 14.4
2006-03-08 08:15:22 51°15.375 2°50.197 270.7 12.5 268 14.4
2006-03-08 08:15:28 51°15.375 2°50.164 271 12.5 268 14.4
2006-03-08 08:15:33 51°15.375 2°50.136 271.4 12.5 268 14.5
2006-03-08 08:15:38 51°15.374 2°50.109 271.5 12.5 268 14.4
2006-03-08 08:15:43 51°15.374 2°50.081 271.6 12.5 268 14.5
2006-03-08 08:15:48 51°15.373 2°50.053 271.7 12.5 268 14.4
2006-03-08 08:15:53 51°15.372 2°50.026 271.5 12.5 268 14.4
2006-03-08 08:15:58 51°15.372 2°49.998 271.5 12.5 268 14.4
2006-03-08 08:16:02 51°15.371 2°49.976 271.2 12.5 268 14.5
2006-03-08 08:16:08 51°15.37 2°49.943 271 12.5 267 14.5
2006-03-08 08:16:13 51°15.369 2°49.915 270.7 12.5 267 14.5
2006-03-08 08:16:18 51°15.368 2°49.888 270.4 12.5 267 14.6
2006-03-08 08:16:23 51°15.368 2°49.86 270.4 12.5 267 14.5
2006-03-08 08:16:28 51°15.367 2°49.832 270.8 12.5 268 14.4
2006-03-08 08:16:32 51°15.367 2°49.81 271.1 12.5 268 14.5
2006-03-08 08:16:38 51°15.367 2°49.777 271.9 12.5 269 14.5
2006-03-08 08:16:43 51°15.367 2°49.749 272.6 12.5 270 14.5
2006-03-08 08:16:48 51°15.367 2°49.722 273.6 12.5 271 14.4
2006-03-08 08:16:52 51°15.368 2°49.7 274.2 12.5 271 14.5
2006-03-08 08:16:58 51°15.369 2°49.667 274.8 12.5 272 14.5
2006-03-08 08:17:03 51°15.369 2°49.639 275 12.5 272 14.5
2006-03-08 08:17:08 51°15.37 2°49.611 275.2 12.6 272 14.5
2006-03-08 08:17:13 51°15.37 2°49.584 275.4 12.6 272 14.5
2006-03-08 08:17:18 51°15.371 2°49.556 275.5 12.5 272 14.6
2006-03-08 08:17:23 51°15.372 2°49.528 275.2 12.5 272 14.5
2006-03-08 08:17:28 51°15.372 2°49.5 274.9 12.5 271 14.5
2006-03-08 08:17:32 51°15.372 2°49.479 274.2 12.5 271 14.6
2006-03-08 08:17:38 51°15.373 2°49.446 274.1 12.5 271 14.6
2006-03-08 08:17:42 51°15.373 2°49.424 274 12.5 272 14.6
2006-03-08 08:17:48 51°15.374 2°49.39 274.2 12.5 271 14.6
2006-03-08 08:17:53 51°15.374 2°49.363 274.3 12.5 271 14.6
2006-03-08 08:17:58 51°15.375 2°49.335 274.3 12.5 272 14.6
2006-03-08 08:18:03 51°15.375 2°49.308 274.5 12.5 272 14.6
2006-03-08 08:18:08 51°15.375 2°49.28 274.4 12.5 270 14.6
2006-03-08 08:18:13 51°15.375 2°49.253 273.7 12.5 270 14.6
2006-03-08 08:18:18 51°15.375 2°49.225 272.9 12.4 269 14.6
2006-03-08 08:18:23 51°15.374 2°49.198 272.1 12.4 269 14.6
2006-03-08 08:18:28 51°15.373 2°49.17 271.6 12.4 268 14.6
2006-03-08 08:18:33 51°15.373 2°49.143 271.1 12.4 268 14.6
2006-03-08 08:18:38 51°15.372 2°49.115 270.8 12.4 268 14.7
2006-03-08 08:18:43 51°15.372 2°49.088 271.1 12.4 269 14.7
2006-03-08 08:18:48 51°15.371 2°49.06 271.4 12.4 268 14.6
2006-03-08 08:18:53 51°15.371 2°49.033 271.5 12.4 269 14.6
2006-03-08 08:18:58 51°15.37 2°49.005 272.1 12.4 269 14.5
2006-03-08 08:19:03 51°15.37 2°48.978 272.1 12.4 269 14.5
2006-03-08 08:19:08 51°15.37 2°48.951 272.2 12.3 269 14.5
2006-03-08 08:19:13 51°15.37 2°48.923 272.3 12.4 269 14.6
2006-03-08 08:19:18 51°15.369 2°48.896 272.4 12.4 269 14.5
2006-03-08 08:19:23 51°15.369 2°48.869 272.2 12.3 269 14.5
2006-03-08 08:19:28 51°15.368 2°48.841 272.2 12.3 268 14.4
2006-03-08 08:19:33 51°15.368 2°48.814 271.9 12.3 268 14.4
2006-03-08 08:19:38 51°15.367 2°48.787 271.8 12.4 268 14.3
2006-03-08 08:19:43 51°15.367 2°48.76 271.5 12.4 268 14.3
2006-03-08 08:19:48 51°15.366 2°48.732 271.2 12.3 268 14.1
2006-03-08 08:19:53 51°15.365 2°48.705 271.3 12.3 268 14
2006-03-08 08:19:58 51°15.365 2°48.678 271.3 12.4 269 13.9
2006-03-08 08:20:03 51°15.365 2°48.65 271.7 12.3 268 13.8
2006-03-08 08:20:08 51°15.364 2°48.623 272.1 12.4 269 13.6
2006-03-08 08:20:13 51°15.364 2°48.595 272.4 12.4 269 13.5
2006-03-08 08:20:18 51°15.364 2°48.568 272.9 12.4 270 13.3
2006-03-08 08:20:23 51°15.364 2°48.54 273.2 12.4 270 13.1
2006-03-08 08:20:28 51°15.364 2°48.513 273.3 12.4 270 13
2006-03-08 08:20:33 51°15.364 2°48.485 273.4 12.4 270 12.8
2006-03-08 08:20:38 51°15.364 2°48.457 273.4 12.4 270 12.7
2006-03-08 08:20:43 51°15.363 2°48.43 273 12.4 269 12.5
2006-03-08 08:20:48 51°15.363 2°48.402 272.7 12.4 269 12.4
2006-03-08 08:20:53 51°15.362 2°48.375 272.1 12.5 268 12.3
2006-03-08 08:20:58 51°15.362 2°48.347 271.8 12.4 267 12.2
2006-03-08 08:21:03 51°15.361 2°48.32 271.2 12.5 268 12.1
2006-03-08 08:21:08 51°15.36 2°48.292 271.2 12.5 268 12
2006-03-08 08:21:13 51°15.36 2°48.264 271.3 12.5 268 11.9
2006-03-08 08:21:18 51°15.36 2°48.237 271.9 12.5 269 11.9
2006-03-08 08:21:23 51°15.359 2°48.209 272.3 12.5 269 11.7
2006-03-08 08:21:28 51°15.359 2°48.182 272.8 12.5 270 11.7
2006-03-08 08:21:33 51°15.359 2°48.154 273.1 12.5 270 11.7
2006-03-08 08:21:38 51°15.359 2°48.126 273.4 12.5 270 11.6
2006-03-08 08:21:43 51°15.359 2°48.099 273 12.5 270 11.6
2006-03-08 08:21:48 51°15.359 2°48.071 272.9 12.5 270 11.6
2006-03-08 08:21:53 51°15.358 2°48.043 272.5 12.5 269 11.5
2006-03-08 08:21:58 51°15.358 2°48.015 272.5 12.5 269 11.5
2006-03-08 08:22:03 51°15.358 2°47.988 272.5 12.5 269 11.6
2006-03-08 08:22:08 51°15.357 2°47.96 272.1 12.5 269 11.6
2006-03-08 08:22:13 51°15.357 2°47.933 272.1 12.5 269 11.6
2006-03-08 08:22:18 51°15.356 2°47.905 272.1 12.5 269 11.5
2006-03-08 08:22:23 51°15.356 2°47.877 271.9 12.5 268 11.6
2006-03-08 08:22:28 51°15.355 2°47.849 271.6 12.5 268 11.5
2006-03-08 08:22:33 51°15.355 2°47.822 271.4 12.6 268 11.6
2006-03-08 08:22:38 51°15.354 2°47.794 271.4 12.6 268 11.6
2006-03-08 08:22:43 51°15.354 2°47.766 271.3 12.6 268 11.6
2006-03-08 08:22:48 51°15.353 2°47.738 271.4 12.6 268 11.6
2006-03-08 08:22:52 51°15.353 2°47.716 271.5 12.6 268 11.6
2006-03-08 08:22:58 51°15.352 2°47.683 271.8 12.6 269 11.7
2006-03-08 08:23:03 51°15.352 2°47.655 272.4 12.6 270 11.8
2006-03-08 08:23:08 51°15.353 2°47.627 273 12.6 270 11.8
2006-03-08 08:23:13 51°15.353 2°47.599 273.6 12.6 271 11.8
2006-03-08 08:23:18 51°15.353 2°47.571 274 12.6 270 11.8
2006-03-08 08:23:23 51°15.353 2°47.543 273.8 12.6 271 11.9
2006-03-08 08:23:28 51°15.353 2°47.516 273.7 12.6 270 12
2006-03-08 08:23:33 51°15.353 2°47.488 273.3 12.6 270 12.1
2006-03-08 08:23:38 51°15.353 2°47.46 272.9 12.6 270 12.1
2006-03-08 08:23:43 51°15.353 2°47.432 272.6 12.6 269 12.2
2006-03-08 08:23:48 51°15.352 2°47.404 272.5 12.6 269 12.3
2006-03-08 08:23:53 51°15.352 2°47.376 272.5 12.6 269 12.3
2006-03-08 08:23:58 51°15.352 2°47.349 272.5 12.6 270 12.4
2006-03-08 08:24:03 51°15.352 2°47.321 272.5 12.6 270 12.5
2006-03-08 08:24:08 51°15.352 2°47.293 272.8 12.6 270 12.6
2006-03-08 08:24:13 51°15.352 2°47.265 272.8 12.6 270 12.7
2006-03-08 08:24:18 51°15.352 2°47.237 273.2 12.6 270 12.8
2006-03-08 08:24:23 51°15.352 2°47.209 273.2 12.6 270 12.8
2006-03-08 08:24:28 51°15.352 2°47.181 273 12.6 270 13
2006-03-08 08:24:33 51°15.352 2°47.154 272.6 12.6 270 13
2006-03-08 08:24:38 51°15.352 2°47.126 272.5 12.6 269 13.1
2006-03-08 08:24:42 51°15.351 2°47.104 272.1 12.6 269 13.3
2006-03-08 08:24:48 51°15.351 2°47.07 272.1 12.5 270 13.3
2006-03-08 08:24:53 51°15.351 2°47.043 272.1 12.5 270 13.4
2006-03-08 08:24:58 51°15.351 2°47.015 272.1 12.5 270 13.3
2006-03-08 08:25:02 51°15.351 2°46.992 272.4 12.6 270 13.6
2006-03-08 08:25:08 51°15.351 2°46.959 272.6 12.6 270 13.5
2006-03-08 08:25:13 51°15.351 2°46.932 272.9 12.6 270 13.6
2006-03-08 08:25:18 51°15.351 2°46.904 272.9 12.5 270 13.7
2006-03-08 08:25:23 51°15.351 2°46.876 272.7 12.5 270 13.9
2006-03-08 08:25:28 51°15.351 2°46.848 272.8 12.5 270 14
2006-03-08 08:25:32 51°15.351 2°46.826 272.6 12.5 270 14.1
2006-03-08 08:25:38 51°15.351 2°46.793 272.4 12.5 270 14.4
2006-03-08 08:25:43 51°15.35 2°46.766 272.1 12.5 269 14.4
2006-03-08 08:25:48 51°15.35 2°46.738 272.1 12.5 269 14.5
2006-03-08 08:25:53 51°15.35 2°46.71 272 12.5 269 14.6
2006-03-08 08:25:58 51°15.35 2°46.683 271.9 12.5 269 14.8
2006-03-08 08:26:03 51°15.349 2°46.655 271.8 12.5 269 14.8
2006-03-08 08:26:08 51°15.349 2°46.628 271.8 12.5 270 15
2006-03-08 08:26:13 51°15.349 2°46.6 271.8 12.5 269 15.1
2006-03-08 08:26:18 51°15.349 2°46.572 272 12.5 270 15.2
2006-03-08 08:26:23 51°15.349 2°46.545 272.2 12.5 270 15.3
2006-03-08 08:26:28 51°15.349 2°46.517 272.4 12.5 270 15.4
2006-03-08 08:26:33 51°15.349 2°46.49 272.6 12.5 270 15.6
2006-03-08 08:26:38 51°15.35 2°46.462 272.9 12.5 271 15.6
2006-03-08 08:26:43 51°15.35 2°46.435 273.1 12.5 271 15.7
2006-03-08 08:26:48 51°15.35 2°46.407 273.4 12.5 271 15.8
2006-03-08 08:26:53 51°15.351 2°46.38 273.6 12.4 271 15.9
2006-03-08 08:26:58 51°15.351 2°46.352 273.6 12.5 271 15.9
2006-03-08 08:27:03 51°15.351 2°46.325 273.5 12.4 271 16
2006-03-08 08:27:08 51°15.351 2°46.297 272.9 12.4 270 16.1
2006-03-08 08:27:13 51°15.351 2°46.269 272.3 12.4 270 16.1
2006-03-08 08:27:18 51°15.351 2°46.242 272.1 12.4 270 16.2
2006-03-08 08:27:23 51°15.351 2°46.215 272 12.4 270 16.3
2006-03-08 08:27:28 51°15.351 2°46.187 272 12.4 270 16.4
2006-03-08 08:27:33 51°15.351 2°46.16 272 12.4 270 16.5
2006-03-08 08:27:38 51°15.351 2°46.133 272 12.4 270 16.5
2006-03-08 08:27:43 51°15.351 2°46.105 272.1 12.4 270 16.6
2006-03-08 08:27:48 51°15.351 2°46.077 272.4 12.5 271 16.6
2006-03-08 08:27:53 51°15.352 2°46.05 272.7 12.5 271 16.8
2006-03-08 08:27:58 51°15.352 2°46.022 272.9 12.5 271 16.9
2006-03-08 08:28:03 51°15.352 2°45.995 273.2 12.5 271 17
2006-03-08 08:28:08 51°15.353 2°45.967 273.1 12.5 271 17.1
2006-03-08 08:28:13 51°15.353 2°45.939 272.9 12.5 271 17.2
2006-03-08 08:28:18 51°15.353 2°45.912 272.6 12.5 270 17.2
2006-03-08 08:28:23 51°15.353 2°45.884 272.1 12.5 270 17.3
2006-03-08 08:28:28 51°15.352 2°45.857 271.7 12.5 270 17.1
2006-03-08 08:28:33 51°15.352 2°45.829 271.6 12.5 270 17.2
2006-03-08 08:28:38 51°15.352 2°45.801 271.6 12.5 270 17.2
2006-03-08 08:28:43 51°15.352 2°45.774 271.9 12.5 270 17.4
2006-03-08 08:28:48 51°15.353 2°45.746 272.1 12.6 270 17.4
2006-03-08 08:28:53 51°15.353 2°45.718 272.1 12.6 270 17.5
2006-03-08 08:28:58 51°15.353 2°45.69 272.5 12.6 271 17.7
2006-03-08 08:29:03 51°15.354 2°45.662 272.9 12.6 272 17.8
2006-03-08 08:29:08 51°15.355 2°45.634 274 12.6 273 17.9
2006-03-08 08:29:13 51°15.356 2°45.607 274.8 12.6 273 18.1
2006-03-08 08:29:18 51°15.357 2°45.579 275.4 12.5 274 18.3
2006-03-08 08:29:23 51°15.359 2°45.551 275.8 12.6 274 18.4
2006-03-08 08:29:28 51°15.36 2°45.524 276.2 12.6 275 18.5
2006-03-08 08:29:33 51°15.362 2°45.496 276.4 12.6 275 18.6
2006-03-08 08:29:38 51°15.363 2°45.468 276.4 12.6 275 18.7
2006-03-08 08:29:43 51°15.365 2°45.44 276.4 12.6 275 18.7
2006-03-08 08:29:48 51°15.366 2°45.413 276 12.6 275 18.9
2006-03-08 08:29:53 51°15.367 2°45.385 275.9 12.6 274 19
2006-03-08 08:29:58 51°15.368 2°45.357 275.4 12.5 274 19.1
2006-03-08 08:30:03 51°15.369 2°45.33 275 12.5 273 19.2
2006-03-08 08:30:08 51°15.37 2°45.302 274.7 12.5 273 19.3
2006-03-08 08:30:13 51°15.372 2°45.274 274.4 12.5 273 19.4
2006-03-08 08:30:18 51°15.373 2°45.247 274.4 12.5 274 19.4
2006-03-08 08:30:23 51°15.374 2°45.219 274.6 12.5 274 19.5
2006-03-08 08:30:28 51°15.375 2°45.192 275.1 12.4 275 19.5
2006-03-08 08:30:33 51°15.377 2°45.164 275.2 12.4 275 19.5
2006-03-08 08:30:38 51°15.378 2°45.137 275.4 12.4 275 19.6
2006-03-08 08:30:43 51°15.38 2°45.109 275.5 12.4 275 19.5
2006-03-08 08:30:48 51°15.381 2°45.082 275.3 12.4 275 19.6
2006-03-08 08:30:53 51°15.383 2°45.055 275.3 12.4 275 19.6
2006-03-08 08:30:58 51°15.384 2°45.027 275.3 12.4 275 19.6
2006-03-08 08:31:03 51°15.386 2°45 275.4 12.4 275 19.5
2006-03-08 08:31:08 51°15.387 2°44.973 275.5 12.4 275 19.5
2006-03-08 08:31:13 51°15.389 2°44.946 275.5 12.4 275 19.4
2006-03-08 08:31:18 51°15.39 2°44.919 275.5 12.4 275 19.3
2006-03-08 08:31:23 51°15.392 2°44.891 275.6 12.3 275 19.1
2006-03-08 08:31:28 51°15.394 2°44.864 275.6 12.4 275 19.1
2006-03-08 08:31:33 51°15.395 2°44.837 275.8 12.4 275 18.9
2006-03-08 08:31:38 51°15.397 2°44.809 275.8 12.4 276 18.7
2006-03-08 08:31:43 51°15.399 2°44.782 275.8 12.4 275 18.6
2006-03-08 08:31:48 51°15.4 2°44.755 275.8 12.3 276 18.4
2006-03-08 08:31:53 51°15.402 2°44.728 275.9 12.3 276 18.2
2006-03-08 08:31:58 51°15.403 2°44.7 275.5 12.4 275 18.1
2006-03-08 08:32:03 51°15.405 2°44.673 275.7 12.4 275 17.9
2006-03-08 08:32:08 51°15.406 2°44.646 275.3 12.3 275 17.7
2006-03-08 08:32:13 51°15.408 2°44.619 275.2 12.3 274 17.5
2006-03-08 08:32:18 51°15.409 2°44.592 274.9 12.4 274 17.3
2006-03-08 08:32:23 51°15.41 2°44.565 274.7 12.3 273 17.2
2006-03-08 08:32:28 51°15.411 2°44.538 274.2 12.3 273 17
2006-03-08 08:32:33 51°15.411 2°44.51 273.8 12.3 273 16.8
2006-03-08 08:32:38 51°15.413 2°44.483 274 12.3 274 16.5
2006-03-08 08:32:43 51°15.414 2°44.456 274.3 12.3 273 16.3
2006-03-08 08:32:48 51°15.415 2°44.429 274.7 12.4 274 16
2006-03-08 08:32:53 51°15.416 2°44.402 275.3 12.4 274 15.9
2006-03-08 08:32:58 51°15.418 2°44.374 275.3 12.4 275 15.3
2006-03-08 08:33:03 51°15.419 2°44.347 275.7 12.4 275 15
2006-03-08 08:33:08 51°15.421 2°44.319 276 12.4 275 15.2
2006-03-08 08:33:13 51°15.422 2°44.292 276 12.4 275 15.1
2006-03-08 08:33:18 51°15.423 2°44.265 275.7 12.5 274 14.9
2006-03-08 08:33:23 51°15.424 2°44.237 275.4 12.5 274 14.8
2006-03-08 08:33:28 51°15.425 2°44.21 274.9 12.4 273 14.7
2006-03-08 08:33:33 51°15.426 2°44.182 274.4 12.5 273 14.7
2006-03-08 08:33:38 51°15.427 2°44.154 274.4 12.5 273 14.6
2006-03-08 08:33:43 51°15.428 2°44.127 274.4 12.5 274 14.6
2006-03-08 08:33:48 51°15.429 2°44.099 274.8 12.5 274 14.6
2006-03-08 08:33:53 51°15.431 2°44.072 275.2 12.5 274 14.5
2006-03-08 08:33:58 51°15.432 2°44.044 275.5 12.5 275 14.4
2006-03-08 08:34:03 51°15.434 2°44.016 275.8 12.5 275 14.4
2006-03-08 08:34:08 51°15.436 2°43.989 276 12.6 275 14.4
2006-03-08 08:34:13 51°15.437 2°43.962 276 12.5 275 14.3
2006-03-08 08:34:18 51°15.439 2°43.934 276 12.5 275 14.1
2006-03-08 08:34:23 51°15.44 2°43.907 276 12.5 275 14.2
2006-03-08 08:34:28 51°15.442 2°43.879 276 12.5 275 14.2
2006-03-08 08:34:33 51°15.443 2°43.852 275.9 12.5 275 14.3
2006-03-08 08:34:38 51°15.445 2°43.824 275.7 12.5 274 14.2
2006-03-08 08:34:43 51°15.446 2°43.797 275.3 12.5 275 14.3
2006-03-08 08:34:48 51°15.447 2°43.769 275.1 12.5 274 14.4
2006-03-08 08:34:53 51°15.449 2°43.741 274.7 12.5 274 14.4
2006-03-08 08:34:58 51°15.45 2°43.714 274.7 12.5 274 14.4
2006-03-08 08:35:03 51°15.452 2°43.686 275.1 12.5 275 14.3
2006-03-08 08:35:08 51°15.453 2°43.659 275.6 12.5 275 14.5
2006-03-08 08:35:13 51°15.455 2°43.631 276.1 12.5 275 14.6
2006-03-08 08:35:18 51°15.456 2°43.604 276.1 12.5 276 14.6
2006-03-08 08:35:23 51°15.458 2°43.576 276.3 12.5 276 14.6
2006-03-08 08:35:28 51°15.46 2°43.548 276 12.5 275 14.4
2006-03-08 08:35:33 51°15.461 2°43.521 275.8 12.6 275 13.7
2006-03-08 08:35:38 51°15.463 2°43.493 275.8 12.5 275 13.8
2006-03-08 08:35:43 51°15.465 2°43.466 275.7 12.5 275 14.2
2006-03-08 08:35:48 51°15.466 2°43.438 275.8 12.5 275 14.5
2006-03-08 08:35:53 51°15.467 2°43.41 275.5 12.5 275 14.5
2006-03-08 08:35:58 51°15.468 2°43.382 275.3 12.6 274 14.5
2006-03-08 08:36:03 51°15.469 2°43.355 275 12.6 274 14.4
2006-03-08 08:36:08 51°15.47 2°43.327 274.8 12.5 273 14.3
2006-03-08 08:36:13 51°15.471 2°43.299 274 12.5 272 14.3
2006-03-08 08:36:18 51°15.471 2°43.272 272.9 12.5 271 13.9
2006-03-08 08:36:23 51°15.471 2°43.244 272.4 12.5 271 13.6
2006-03-08 08:36:28 51°15.471 2°43.216 271.9 12.5 271 14
2006-03-08 08:36:33 51°15.471 2°43.189 271.3 12.5 271 13.9
2006-03-08 08:36:38 51°15.471 2°43.161 270.7 12.5 269 13.7
2006-03-08 08:36:43 51°15.471 2°43.133 270.4 12.6 269 13.4
2006-03-08 08:36:48 51°15.471 2°43.106 270.1 12.5 270 13.3
2006-03-08 08:36:53 51°15.471 2°43.078 270.4 12.5 270 13.3
2006-03-08 08:36:58 51°15.471 2°43.051 270.7 12.5 270 12.9
2006-03-08 08:37:03 51°15.471 2°43.023 271.2 12.5 271 13.2
2006-03-08 08:37:08 51°15.471 2°42.996 271.6 12.5 271 13.4
2006-03-08 08:37:13 51°15.471 2°42.968 271.8 12.5 271 13.2
2006-03-08 08:37:18 51°15.471 2°42.941 271.6 12.5 270 13.5
2006-03-08 08:37:23 51°15.471 2°42.912 271.3 12.5 269 12.8
2006-03-08 08:37:28 51°15.471 2°42.885 270.7 12.5 270 12.4
2006-03-08 08:37:33 51°15.471 2°42.857 270.6 12.5 270 13
2006-03-08 08:37:38 51°15.471 2°42.829 270.7 12.5 270 12.7
2006-03-08 08:37:43 51°15.471 2°42.801 270.7 12.6 270 12.4
2006-03-08 08:37:48 51°15.471 2°42.774 270.7 12.5 270 12
2006-03-08 08:37:53 51°15.471 2°42.746 270.7 12.5 270 12.4
2006-03-08 08:37:58 51°15.471 2°42.719 271.1 12.5 270 12.7
2006-03-08 08:38:03 51°15.472 2°42.691 271.1 12.5 271 12.7
2006-03-08 08:38:08 51°15.472 2°42.663 271.1 12.6 271 12.6
2006-03-08 08:38:13 51°15.472 2°42.636 271 12.6 271 12.3
2006-03-08 08:38:18 51°15.472 2°42.608 271 12.5 270 11.7
2006-03-08 08:38:23 51°15.472 2°42.581 271 12.5 270 12
2006-03-08 08:38:28 51°15.472 2°42.553 271.1 12.5 270 11.7
2006-03-08 08:38:33 51°15.472 2°42.525 271.3 12.5 270 11.9
2006-03-08 08:38:38 51°15.473 2°42.498 271.4 12.5 271 13
2006-03-08 08:38:43 51°15.473 2°42.47 271.5 12.6 271 12.7
2006-03-08 08:38:48 51°15.473 2°42.442 271.5 12.6 270 12.7
2006-03-08 08:38:53 51°15.473 2°42.414 271.4 12.6 270 12
2006-03-08 08:38:58 51°15.473 2°42.386 271.2 12.6 270 11.1
2006-03-08 08:39:03 51°15.473 2°42.358 271.1 12.5 271 12.4
2006-03-08 08:39:08 51°15.473 2°42.331 271 12.5 270 12.5
2006-03-08 08:39:13 51°15.474 2°42.303 271 12.5 270 12.3
2006-03-08 08:39:18 51°15.475 2°42.275 271.8 12.6 272 11.9
2006-03-08 08:39:23 51°15.476 2°42.247 272.5 12.6 272 11.2
2006-03-08 08:39:28 51°15.477 2°42.219 273.5 12.6 272 12
2006-03-08 08:39:32 51°15.478 2°42.197 274.3 12.5 275 12.7
2006-03-08 08:39:38 51°15.481 2°42.164 275.9 12.6 276 12.6
2006-03-08 08:39:43 51°15.484 2°42.136 277.4 12.7 278 12.4
2006-03-08 08:39:48 51°15.487 2°42.108 278.7 12.7 278 11.7
2006-03-08 08:39:53 51°15.49 2°42.081 279.6 12.7 278 11
2006-03-08 08:39:58 51°15.493 2°42.054 280.3 12.4 281 9.9
2006-03-08 08:40:03 51°15.496 2°42.027 280.6 12.4 281 11.7
2006-03-08 08:40:08 51°15.5 2°42 281 12.5 281 11.8
2006-03-08 08:40:13 51°15.503 2°41.972 280.9 12.5 281 11.5
2006-03-08 08:40:18 51°15.506 2°41.944 280.8 12.7 280 11.5
2006-03-08 08:40:23 51°15.509 2°41.917 280.2 12.7 280 11.5
2006-03-08 08:40:28 51°15.511 2°41.889 279.2 12.7 280 11.5
2006-03-08 08:40:32 51°15.513 2°41.867 278.8 12.6 278 11.4
2006-03-08 08:40:38 51°15.516 2°41.834 278.6 12.6 278 11.5
2006-03-08 08:40:43 51°15.518 2°41.806 278.2 12.6 278 11.7
2006-03-08 08:40:48 51°15.52 2°41.778 278.2 12.7 278 11.6
2006-03-08 08:40:53 51°15.523 2°41.75 278.2 12.7 278 11.7
2006-03-08 08:40:58 51°15.524 2°41.722 277.2 12.6 276 11.9
2006-03-08 08:41:03 51°15.526 2°41.694 276.6 12.6 276 11.9
2006-03-08 08:41:08 51°15.528 2°41.666 275.8 12.6 275 11.9
2006-03-08 08:41:13 51°15.529 2°41.639 275.5 12.6 275 12
2006-03-08 08:41:18 51°15.53 2°41.611 274.7 12.6 274 12
2006-03-08 08:41:23 51°15.531 2°41.583 274.3 12.5 274 12
2006-03-08 08:41:28 51°15.532 2°41.556 274.3 12.3 273 12
2006-03-08 08:41:33 51°15.534 2°41.53 274.3 12.3 273 12
2006-03-08 08:41:38 51°15.535 2°41.504 274.9 11.9 274 12.1
2006-03-08 08:41:43 51°15.536 2°41.478 274.9 11.8 275 12
2006-03-08 08:41:48 51°15.538 2°41.453 275.5 11.4 275 12
2006-03-08 08:41:53 51°15.539 2°41.43 275.7 11.4 275 12.1
2006-03-08 08:41:58 51°15.541 2°41.408 276.1 10.2 277 12.1
2006-03-08 08:42:03 51°15.543 2°41.386 276.3 9.8 277 12.1
2006-03-08 08:42:08 51°15.544 2°41.366 276.5 9.2 277 12.3
2006-03-08 08:42:13 51°15.546 2°41.347 276.4 9.2 277 12.3
2006-03-08 08:42:18 51°15.547 2°41.328 276.2 8.5 278 12.3
2006-03-08 08:42:22 51°15.548 2°41.314 276 8.2 277 12.5
2006-03-08 08:42:28 51°15.55 2°41.293 275.7 7.9 278 12.5
2006-03-08 08:42:33 51°15.551 2°41.277 274.9 7.9 278 12.6
2006-03-08 08:42:38 51°15.552 2°41.262 273.2 7.1 275 12.7
2006-03-08 08:42:42 51°15.552 2°41.25 271.6 6.7 272 12.8
2006-03-08 08:42:48 51°15.552 2°41.233 268.8 6.3 271 12.8
2006-03-08 08:42:53 51°15.552 2°41.22 266.4 6.3 271 12.7
2006-03-08 08:42:58 51°15.551 2°41.208 264 5.7 268 13
2006-03-08 08:43:03 51°15.551 2°41.196 262.2 5.5 266 12.8
2006-03-08 08:43:08 51°15.55 2°41.184 261.2 5.3 266 13.1
2006-03-08 08:43:13 51°15.55 2°41.173 260.6 5.3 266 12.9
2006-03-08 08:43:18 51°15.55 2°41.163 261 4.9 268 13.2
2006-03-08 08:43:23 51°15.549 2°41.152 261.8 4.7 269 12.9
2006-03-08 08:43:28 51°15.55 2°41.142 263.4 4.6 271 13.3
2006-03-08 08:43:33 51°15.55 2°41.132 264.5 4.6 271 12.9
2006-03-08 08:43:38 51°15.55 2°41.123 266.2 4.4 274 13.3
2006-03-08 08:43:43 51°15.551 2°41.114 267 4.2 273 13.1
2006-03-08 08:43:48 51°15.551 2°41.105 266.6 4.1 273 13.1
2006-03-08 08:43:53 51°15.551 2°41.096 265.7 4.1 273 13.3
2006-03-08 08:43:58 51°15.552 2°41.087 263.9 3.9 273 13
2006-03-08 08:44:03 51°15.552 2°41.079 263.3 3.8 271 13.2
2006-03-08 08:44:08 51°15.552 2°41.07 262.9 3.8 273 13.4
2006-03-08 08:44:13 51°15.552 2°41.062 262.8 3.8 273 13.1
2006-03-08 08:44:18 51°15.552 2°41.054 262.7 3.9 272 13.4
2006-03-08 08:44:23 51°15.552 2°41.045 263.1 3.9 272 13.5
2006-03-08 08:44:28 51°15.553 2°41.036 263.4 3.9 273 13.2
2006-03-08 08:44:33 51°15.553 2°41.028 263.9 3.9 273 13.4
2006-03-08 08:44:38 51°15.553 2°41.019 264.4 4 272 13.6
2006-03-08 08:44:42 51°15.554 2°41.012 265 4 274 13.5
2006-03-08 08:44:48 51°15.554 2°41.001 265.2 4 273 13.6
2006-03-08 08:44:53 51°15.554 2°40.993 264.8 4 273 13.6
2006-03-08 08:44:58 51°15.554 2°40.984 263 3.9 269 13.6
2006-03-08 08:45:03 51°15.553 2°40.975 261.4 3.9 266 13.7
2006-03-08 08:45:08 51°15.553 2°40.967 258.8 3.9 265 13.6
2006-03-08 08:45:13 51°15.552 2°40.958 257.6 3.9 265 13.9
2006-03-08 08:45:18 51°15.551 2°40.95 255.9 3.8 262 13.7
2006-03-08 08:45:23 51°15.55 2°40.942 254.8 3.8 259 13.8
2006-03-08 08:45:28 51°15.549 2°40.934 252.5 3.8 256 13.8
2006-03-08 08:45:33 51°15.548 2°40.926 250.8 3.8 256 13.8
2006-03-08 08:45:38 51°15.546 2°40.919 247.2 3.6 250 13.9
2006-03-08 08:45:43 51°15.544 2°40.911 244.6 3.6 249 13.8
2006-03-08 08:45:48 51°15.542 2°40.904 242.4 3.6 247 13.7
2006-03-08 08:45:53 51°15.54 2°40.897 241.4 3.6 247 14
2006-03-08 08:45:58 51°15.538 2°40.89 239.6 3.5 242 13.7
2006-03-08 08:46:02 51°15.536 2°40.884 237.3 3.5 241 13.9
2006-03-08 08:46:08 51°15.532 2°40.876 235.5 3.5 237 14
2006-03-08 08:46:12 51°15.53 2°40.872 232.3 3.5 236 13.9
2006-03-08 08:46:18 51°15.527 2°40.865 229.6 3.4 231 13.9
2006-03-08 08:46:23 51°15.523 2°40.859 227.5 3.4 231 13.6
2006-03-08 08:46:28 51°15.52 2°40.853 225.4 3.4 228 13.7
2006-03-08 08:46:33 51°15.517 2°40.847 224.4 3.5 226 13.9
2006-03-08 08:46:38 51°15.513 2°40.842 224.2 3.5 225 13.6
2006-03-08 08:46:43 51°15.51 2°40.836 224.2 3.5 227 13.7
2006-03-08 08:46:48 51°15.507 2°40.831 224.2 3.5 224 13.7
2006-03-08 08:46:53 51°15.503 2°40.826 223.8 3.5 224 13.5
2006-03-08 08:46:58 51°15.499 2°40.82 222.7 3.6 222 13.6
2006-03-08 08:47:02 51°15.496 2°40.816 222 3.6 221 13.7
2006-03-08 08:47:08 51°15.492 2°40.81 220.5 3.6 220 13.7
2006-03-08 08:47:13 51°15.488 2°40.805 219.3 3.6 220 13.6
2006-03-08 08:47:18 51°15.484 2°40.801 217.6 3.4 216 13.6
2006-03-08 08:47:23 51°15.48 2°40.797 216.2 3.3 215 13.6
2006-03-08 08:47:28 51°15.477 2°40.793 214.5 3.1 214 13.6
2006-03-08 08:47:33 51°15.473 2°40.79 213.4 3.1 214 13.6
2006-03-08 08:47:38 51°15.47 2°40.786 212.1 2.9 211 13.6
2006-03-08 08:47:43 51°15.466 2°40.784 211.1 2.8 211 13.7
2006-03-08 08:47:48 51°15.463 2°40.781 210.3 2.8 210 13.7
2006-03-08 08:47:53 51°15.46 2°40.777 210.1 2.8 210 13.7
2006-03-08 08:47:58 51°15.457 2°40.774 211.1 2.6 210 13.6
2006-03-08 08:48:03 51°15.454 2°40.771 212.6 2.5 216 13.7
2006-03-08 08:48:08 51°15.452 2°40.768 215.2 2.4 215 13.4
2006-03-08 08:48:13 51°15.449 2°40.765 217.6 2.4 215 13.1
2006-03-08 08:48:18 51°15.447 2°40.762 219.9 2 219 13.2
2006-03-08 08:48:23 51°15.445 2°40.759 221.4 1.9 226 13.4
2006-03-08 08:48:28 51°15.444 2°40.757 223.2 1.6 228 13.4
2006-03-08 08:48:33 51°15.443 2°40.755 225.4 1.6 228 13.3
2006-03-08 08:48:38 51°15.443 2°40.754 229.3 0.6 241 13.3
2006-03-08 08:48:43 51°15.443 2°40.754 232.5 0.2 300 13.3
2006-03-08 08:48:48 51°15.444 2°40.754 236.7 0.3 5 13.3
2006-03-08 08:48:53 51°15.445 2°40.755 240.5 0.3 5 13.3
2006-03-08 08:48:58 51°15.446 2°40.757 243.8 1.1 48 13.4
2006-03-08 08:49:03 51°15.447 2°40.76 247.2 1.4 47 13.5
2006-03-08 08:49:08 51°15.449 2°40.762 250.3 1.4 51 13.3
2006-03-08 08:49:13 51°15.45 2°40.764 252.9 1.4 51 13.2
2006-03-08 08:49:18 51°15.451 2°40.767 255.1 1.4 52 -999
2006-03-08 08:49:23 51°15.452 2°40.769 257.6 1.3 53 -999
2006-03-08 08:49:28 51°15.453 2°40.772 259.6 1.3 54 -999
2006-03-08 08:49:33 51°15.454 2°40.774 260.7 1.3 53 -999
2006-03-08 08:49:38 51°15.456 2°40.776 262 1.3 54 -999
2006-03-08 08:49:43 51°15.457 2°40.778 262.5 1.3 53 -999
2006-03-08 08:49:48 51°15.458 2°40.78 263.3 1.3 52 4.8
2006-03-08 08:49:52 51°15.459 2°40.782 263.9 1.3 52 4.9
2006-03-08 08:49:58 51°15.46 2°40.785 264.5 1.3 50 -999
2006-03-08 08:50:03 51°15.461 2°40.787 264.8 1.3 52 5
2006-03-08 08:50:08 51°15.462 2°40.789 265.1 1.2 51 5.1
2006-03-08 08:50:13 51°15.463 2°40.791 265.4 1.3 50 4.9
2006-03-08 08:50:18 51°15.465 2°40.794 265.6 1.3 50 13.8
2006-03-08 08:50:23 51°15.466 2°40.796 265.7 1.3 49 13.8
2006-03-08 08:50:28 51°15.467 2°40.798 266.1 1.3 49 13.7
2006-03-08 08:50:33 51°15.468 2°40.8 266.3 1.3 49 13.6
2006-03-08 08:50:38 51°15.47 2°40.802 266.7 1.3 47 13.5
2006-03-08 08:50:43 51°15.471 2°40.804 266.9 1.3 49 13.5
2006-03-08 08:50:48 51°15.472 2°40.806 267.3 1.3 46 13.5
2006-03-08 08:50:53 51°15.473 2°40.809 267.8 1.3 46 13.5
2006-03-08 08:50:58 51°15.475 2°40.811 268.1 1.3 45 13.5
2006-03-08 08:51:03 51°15.476 2°40.813 268.5 1.3 47 13.4
2006-03-08 08:51:08 51°15.477 2°40.815 269 1.3 47 13.5
2006-03-08 08:51:13 51°15.478 2°40.817 269.3 1.3 47 13.5
2006-03-08 08:51:18 51°15.48 2°40.819 269.7 1.3 48 13.5
2006-03-08 08:51:23 51°15.481 2°40.821 270.2 1.3 48 13.6
2006-03-08 08:51:28 51°15.482 2°40.823 270.7 1.3 48 13.5
2006-03-08 08:51:33 51°15.483 2°40.826 271.3 1.3 48 13.4
2006-03-08 08:51:38 51°15.485 2°40.828 271.8 1.3 49 13.4
2006-03-08 08:51:43 51°15.486 2°40.83 272.4 1.3 46 13.4
2006-03-08 08:51:48 51°15.487 2°40.832 272.9 1.2 49 13.5
2006-03-08 08:51:53 51°15.489 2°40.834 273.3 1.2 49 13.5
2006-03-08 08:51:58 51°15.49 2°40.836 273.8 1.3 47 13.5
2006-03-08 08:52:03 51°15.491 2°40.838 274.5 1.3 46 13.5
2006-03-08 08:52:08 51°15.492 2°40.84 275.2 1.3 46 13.4
2006-03-08 08:52:13 51°15.494 2°40.842 275.6 1.3 46 13.4
2006-03-08 08:52:18 51°15.495 2°40.844 276.1 1.3 45 13.4
2006-03-08 08:52:23 51°15.496 2°40.846 276.6 1.2 49 13.5
2006-03-08 08:52:28 51°15.497 2°40.848 277.3 1.3 45 13.5
2006-03-08 08:52:33 51°15.498 2°40.851 277.9 1.3 45 13.5
2006-03-08 08:52:38 51°15.5 2°40.853 278.5 1.3 46 13.4
2006-03-08 08:52:43 51°15.501 2°40.855 279.2 1.3 48 13.5
2006-03-08 08:52:48 51°15.502 2°40.857 280 1.3 44 13.5
2006-03-08 08:52:53 51°15.503 2°40.859 280.8 1.3 44 13.4
2006-03-08 08:52:58 51°15.504 2°40.861 281.5 1.3 44 13.4
2006-03-08 08:53:03 51°15.506 2°40.863 282.3 1.2 47 13.6
2006-03-08 08:53:08 51°15.507 2°40.865 283.3 1.3 45 13.7
2006-03-08 08:53:13 51°15.508 2°40.867 284.1 1.3 45 13.6
2006-03-08 08:53:18 51°15.509 2°40.869 285.1 1.4 44 13.6
2006-03-08 08:53:23 51°15.511 2°40.871 285.8 1.2 49 13.6
2006-03-08 08:53:28 51°15.512 2°40.873 286.8 1.3 44 13.5
2006-03-08 08:53:33 51°15.513 2°40.875 287.7 1.3 44 13.7
2006-03-08 08:53:38 51°15.514 2°40.877 288.8 1.3 44 13.6
2006-03-08 08:53:42 51°15.515 2°40.878 289.6 1.1 47 13.5
2006-03-08 08:53:48 51°15.516 2°40.881 290.7 1.3 44 13.6
2006-03-08 08:53:53 51°15.518 2°40.883 291.6 1.3 44 13.6
2006-03-08 08:53:58 51°15.519 2°40.884 292.6 1.3 42 13.5
2006-03-08 08:54:03 51°15.52 2°40.886 293.6 1.1 48 13.6
2006-03-08 08:54:08 51°15.521 2°40.888 294.8 1.2 44 13.8
2006-03-08 08:54:13 51°15.522 2°40.89 296 1.1 48 13.8
2006-03-08 08:54:18 51°15.524 2°40.892 296.9 1.2 43 13.8
2006-03-08 08:54:23 51°15.525 2°40.894 297.8 1.1 46 13.7
2006-03-08 08:54:28 51°15.526 2°40.895 299 1.2 42 13.7
2006-03-08 08:54:33 51°15.527 2°40.897 299.7 1.1 44 13.7
2006-03-08 08:54:38 51°15.528 2°40.899 300.4 1.2 43 13.6
2006-03-08 08:54:43 51°15.529 2°40.901 301.5 1 45 13.6
2006-03-08 08:54:48 51°15.531 2°40.902 302.5 1.2 42 13.5
2006-03-08 08:54:53 51°15.532 2°40.904 303.3 1 45 13.6
2006-03-08 08:54:58 51°15.533 2°40.905 304.1 1.1 40 13.8
2006-03-08 08:55:03 51°15.534 2°40.907 304.9 1.2 41 13.8
2006-03-08 08:55:08 51°15.535 2°40.909 305.7 1.1 41 13.7
2006-03-08 08:55:13 51°15.536 2°40.91 306.6 1.1 41 13.6
2006-03-08 08:55:18 51°15.537 2°40.912 307.3 1.1 37 13.6
2006-03-08 08:55:23 51°15.539 2°40.914 307.8 1.1 38 13.6
2006-03-08 08:55:28 51°15.54 2°40.915 308.7 1.1 38 13.6
2006-03-08 08:55:33 51°15.541 2°40.917 309.4 1.1 39 13.6
2006-03-08 08:55:38 51°15.542 2°40.918 310.1 1.1 40 13.7
2006-03-08 08:55:43 51°15.544 2°40.92 310.9 1.1 40 13.9
2006-03-08 08:55:48 51°15.545 2°40.921 311.5 1.1 38 13.9
2006-03-08 08:55:53 51°15.546 2°40.923 312.4 1.1 38 13.9
2006-03-08 08:55:58 51°15.547 2°40.924 312.9 1 38 13.8
2006-03-08 08:56:03 51°15.548 2°40.926 313.5 1.1 39 13.7
2006-03-08 08:56:08 51°15.549 2°40.927 314.1 1.1 38 13.7
2006-03-08 08:56:13 51°15.551 2°40.928 314.5 1.1 38 13.7
2006-03-08 08:56:18 51°15.552 2°40.93 315 1.1 37 13.7
2006-03-08 08:56:23 51°15.553 2°40.931 315.5 1 37 13.7
2006-03-08 08:56:28 51°15.554 2°40.932 316 1.1 36 13.7
2006-03-08 08:56:32 51°15.555 2°40.934 316.4 1.1 38 13.8
2006-03-08 08:56:38 51°15.557 2°40.935 316.9 1.1 35 13.9
2006-03-08 08:56:42 51°15.558 2°40.937 317.2 1.1 36 13.8
2006-03-08 08:56:48 51°15.559 2°40.938 317.6 1.1 35 13.7
2006-03-08 08:56:53 51°15.561 2°40.94 318 1.1 37 13.6
2006-03-08 08:56:58 51°15.562 2°40.941 318.4 1.1 34 13.5
2006-03-08 08:57:03 51°15.563 2°40.943 318.6 1.1 34 13.5
2006-03-08 08:57:08 51°15.564 2°40.944 318.9 1.1 36 13.5
2006-03-08 08:57:13 51°15.566 2°40.945 319.2 1.1 36 13.8
2006-03-08 08:57:18 51°15.567 2°40.946 319.3 1.1 33 13.9
2006-03-08 08:57:23 51°15.568 2°40.948 319.5 1.1 34 13.9
2006-03-08 08:57:28 51°15.569 2°40.949 319.6 1.1 36 13.8
2006-03-08 08:57:32 51°15.57 2°40.95 319.7 1 32 13.7
2006-03-08 08:57:38 51°15.572 2°40.952 319.7 1.1 34 13.6
2006-03-08 08:57:43 51°15.573 2°40.953 319.8 1.1 35 13.5
2006-03-08 08:57:48 51°15.574 2°40.954 320 1.1 35 13.5
2006-03-08 08:57:52 51°15.575 2°40.955 320 1.1 33 13.5
2006-03-08 08:57:58 51°15.577 2°40.957 319.8 1 31 13.5
2006-03-08 08:58:03 51°15.578 2°40.958 319.6 1 31 13.5
2006-03-08 08:58:08 51°15.579 2°40.959 319.6 1.1 34 13.7
2006-03-08 08:58:13 51°15.58 2°40.961 319.4 1.1 31 13.8
2006-03-08 08:58:18 51°15.582 2°40.962 319.3 1.1 32 13.8
2006-03-08 08:58:23 51°15.583 2°40.963 319.2 1.1 32 13.7
2006-03-08 08:58:28 51°15.584 2°40.965 319 1 33 13.6
2006-03-08 08:58:33 51°15.585 2°40.966 319 1.1 32 13.6
2006-03-08 08:58:38 51°15.587 2°40.966 318.7 1.1 31 13.6
2006-03-08 08:58:43 51°15.59 2°40.965 318.4 1.7 358 13.6
2006-03-08 08:58:48 51°15.593 2°40.962 316.1 2.3 331 13.6
2006-03-08 08:58:53 51°15.597 2°40.958 312.8 3.1 328 13.5
2006-03-08 08:58:58 51°15.6 2°40.953 310.6 3.7 320 13.6
2006-03-08 08:59:03 51°15.605 2°40.946 309.1 3.7 320 13.7
2006-03-08 08:59:08 51°15.609 2°40.938 307.2 4.5 314 13.9
2006-03-08 08:59:13 51°15.614 2°40.929 306.1 5.2 311 14
2006-03-08 08:59:18 51°15.619 2°40.92 304.7 5.6 308 13.7
2006-03-08 08:59:23 51°15.624 2°40.909 303.2 5.9 307 13.6
2006-03-08 08:59:28 51°15.629 2°40.898 301.9 6 307 13.7
2006-03-08 08:59:33 51°15.633 2°40.886 300.6 6 307 13.9
2006-03-08 08:59:38 51°15.638 2°40.872 299.3 6.7 301 14
2006-03-08 08:59:43 51°15.643 2°40.859 297.9 6.7 301 14.4
2006-03-08 08:59:48 51°15.648 2°40.845 296.4 7.2 297 14.2
2006-03-08 08:59:53 51°15.652 2°40.83 294.6 7.3 296 14.5
2006-03-08 08:59:58 51°15.656 2°40.815 292.3 7.4 292 14.7
2006-03-08 09:00:03 51°15.659 2°40.799 289.5 7.4 291 14.5
2006-03-08 09:00:08 51°15.662 2°40.783 286.6 7.5 286 14.9
2006-03-08 09:00:13 51°15.664 2°40.766 284.1 7.6 285 14.9
2006-03-08 09:00:18 51°15.666 2°40.75 280.1 7.6 279 15.1
2006-03-08 09:00:23 51°15.667 2°40.733 276.6 7.6 276 15.3
2006-03-08 09:00:28 51°15.667 2°40.716 273.3 7.6 273 15.5
2006-03-08 09:00:33 51°15.667 2°40.699 269.9 7.6 270 15.6
2006-03-08 09:00:38 51°15.666 2°40.683 266.6 7.6 267 15.7
2006-03-08 09:00:42 51°15.666 2°40.669 264.1 7.7 265 15.7
2006-03-08 09:00:48 51°15.664 2°40.648 262 7.9 264 15.8
2006-03-08 09:00:53 51°15.663 2°40.63 261.2 8.4 263 16
2006-03-08 09:00:58 51°15.661 2°40.61 261 8.9 263 16
2006-03-08 09:01:02 51°15.66 2°40.593 261 9.3 262 16.2
2006-03-08 09:01:08 51°15.657 2°40.566 260.6 10.2 261 16.1
2006-03-08 09:01:13 51°15.655 2°40.543 260.3 10.7 262 16.2
2006-03-08 09:01:18 51°15.653 2°40.518 260.8 11.2 262 16.3
2006-03-08 09:01:22 51°15.651 2°40.498 261.6 11.5 263 16.3
2006-03-08 09:01:28 51°15.648 2°40.467 262 11.8 263 16.6
2006-03-08 09:01:33 51°15.646 2°40.44 262.1 12 263 16.9
2006-03-08 09:01:38 51°15.644 2°40.413 262.2 12.2 263 17.2
2006-03-08 09:01:42 51°15.642 2°40.392 262.3 12.2 262 17.3
2006-03-08 09:01:48 51°15.64 2°40.359 262.2 12.3 263 17.5
2006-03-08 09:01:53 51°15.638 2°40.332 262.2 12.4 263 17.8
2006-03-08 09:01:58 51°15.636 2°40.304 262.7 12.4 263 17.8
2006-03-08 09:02:03 51°15.635 2°40.277 263 12.5 265 18.1
2006-03-08 09:02:08 51°15.633 2°40.25 263.9 12.4 265 18.3
2006-03-08 09:02:13 51°15.631 2°40.223 264.1 12.4 265 18.5
2006-03-08 09:02:18 51°15.629 2°40.195 263.6 12.4 263 18.6
2006-03-08 09:02:23 51°15.627 2°40.168 263.3 12.4 263 18.8
2006-03-08 09:02:28 51°15.624 2°40.141 262.4 12.5 262 18.8
2006-03-08 09:02:32 51°15.623 2°40.119 262.2 12.4 262 18.9
2006-03-08 09:02:38 51°15.62 2°40.086 262.1 12.4 262 19
2006-03-08 09:02:43 51°15.618 2°40.059 262.4 12.5 263 19.2
2006-03-08 09:02:48 51°15.616 2°40.031 263 12.5 263 19.3
2006-03-08 09:02:53 51°15.614 2°40.004 263.4 12.5 264 19.3
2006-03-08 09:02:58 51°15.612 2°39.977 264.1 12.5 264 19.5
2006-03-08 09:03:03 51°15.61 2°39.949 264.3 12.5 264 19.6
2006-03-08 09:03:08 51°15.609 2°39.921 264.5 12.6 265 19.7
2006-03-08 09:03:12 51°15.608 2°39.899 265 12.6 265 19.8
2006-03-08 09:03:18 51°15.606 2°39.866 265.1 12.5 265 19.9
2006-03-08 09:03:23 51°15.604 2°39.839 265.2 12.5 265 19.9
2006-03-08 09:03:28 51°15.603 2°39.811 265 12.6 264 19.9
2006-03-08 09:03:33 51°15.601 2°39.783 264.9 12.6 264 19.9
2006-03-08 09:03:38 51°15.599 2°39.756 264.2 12.5 263 20
2006-03-08 09:03:43 51°15.596 2°39.728 263.7 12.5 262 20
2006-03-08 09:03:48 51°15.594 2°39.701 262.4 12.5 261 20.1
2006-03-08 09:03:53 51°15.591 2°39.674 261.5 12.5 261 20.2
2006-03-08 09:03:58 51°15.588 2°39.646 261 12.5 260 20.2
2006-03-08 09:04:03 51°15.585 2°39.619 260.5 12.5 260 20.3
2006-03-08 09:04:08 51°15.582 2°39.592 260.2 12.5 260 20.2
2006-03-08 09:04:13 51°15.578 2°39.564 260.3 12.5 260 20.4
2006-03-08 09:04:18 51°15.575 2°39.537 260.4 12.5 259 20.3
2006-03-08 09:04:23 51°15.573 2°39.51 260.2 12.6 261 20.2
2006-03-08 09:04:28 51°15.57 2°39.482 260.7 12.6 260 20.3
2006-03-08 09:04:32 51°15.567 2°39.46 261.1 12.5 261 20.3
2006-03-08 09:04:38 51°15.564 2°39.427 261.3 12.5 261 20.3
2006-03-08 09:04:43 51°15.562 2°39.4 261.3 12.5 261 20.4